sensor_id;sensor_type;location;lat;lon;timestamp;P1;durP1;ratioP1;P2;durP2;ratioP2
4565;SDS011;2295;51.050;14.608;2023-02-11T00:02:31;45.92;;;19.85;;
4565;SDS011;2295;51.050;14.608;2023-02-11T00:05:22;50.70;;;20.73;;
4565;SDS011;2295;51.050;14.608;2023-02-11T00:08:01;41.53;;;19.30;;
4565;SDS011;2295;51.050;14.608;2023-02-11T00:10:37;53.05;;;21.15;;
4565;SDS011;2295;51.050;14.608;2023-02-11T00:13:12;61.72;;;21.50;;
4565;SDS011;2295;51.050;14.608;2023-02-11T00:16:04;46.70;;;19.90;;
4565;SDS011;2295;51.050;14.608;2023-02-11T00:18:38;41.50;;;18.13;;
4565;SDS011;2295;51.050;14.608;2023-02-11T00:21:14;36.08;;;16.60;;
4565;SDS011;2295;51.050;14.608;2023-02-11T00:23:49;42.22;;;16.80;;
4565;SDS011;2295;51.050;14.608;2023-02-11T00:26:27;41.17;;;17.42;;
4565;SDS011;2295;51.050;14.608;2023-02-11T00:29:04;44.15;;;16.85;;
4565;SDS011;2295;51.050;14.608;2023-02-11T00:31:39;39.00;;;16.85;;
4565;SDS011;2295;51.050;14.608;2023-02-11T00:34:08;40.45;;;17.10;;
4565;SDS011;2295;51.050;14.608;2023-02-11T00:36:37;50.30;;;17.70;;
4565;SDS011;2295;51.050;14.608;2023-02-11T00:39:06;44.97;;;16.85;;
4565;SDS011;2295;51.050;14.608;2023-02-11T00:41:41;50.97;;;20.90;;
4565;SDS011;2295;51.050;14.608;2023-02-11T00:44:14;49.88;;;19.27;;
4565;SDS011;2295;51.050;14.608;2023-02-11T00:46:48;49.35;;;20.80;;
4565;SDS011;2295;51.050;14.608;2023-02-11T00:49:20;55.08;;;22.27;;
4565;SDS011;2295;51.050;14.608;2023-02-11T00:51:58;43.40;;;19.98;;
4565;SDS011;2295;51.050;14.608;2023-02-11T00:54:33;51.17;;;20.58;;
4565;SDS011;2295;51.050;14.608;2023-02-11T00:57:07;43.38;;;19.55;;
4565;SDS011;2295;51.050;14.608;2023-02-11T00:59:39;51.63;;;21.00;;
4565;SDS011;2295;51.050;14.608;2023-02-11T01:02:14;53.63;;;21.90;;
4565;SDS011;2295;51.050;14.608;2023-02-11T01:04:58;46.38;;;19.75;;
4565;SDS011;2295;51.050;14.608;2023-02-11T01:07:54;51.25;;;19.83;;
4565;SDS011;2295;51.050;14.608;2023-02-11T01:10:23;50.67;;;20.90;;
4565;SDS011;2295;51.050;14.608;2023-02-11T01:12:55;45.08;;;19.50;;
4565;SDS011;2295;51.050;14.608;2023-02-11T01:15:50;44.03;;;19.08;;
4565;SDS011;2295;51.050;14.608;2023-02-11T01:18:33;37.90;;;19.00;;
4565;SDS011;2295;51.050;14.608;2023-02-11T01:21:06;50.90;;;19.02;;
4565;SDS011;2295;51.050;14.608;2023-02-11T01:23:45;47.63;;;19.38;;
4565;SDS011;2295;51.050;14.608;2023-02-11T01:26:33;46.58;;;19.65;;
4565;SDS011;2295;51.050;14.608;2023-02-11T01:29:30;48.83;;;19.83;;
4565;SDS011;2295;51.050;14.608;2023-02-11T01:32:16;46.95;;;19.10;;
4565;SDS011;2295;51.050;14.608;2023-02-11T01:34:57;50.17;;;20.92;;
4565;SDS011;2295;51.050;14.608;2023-02-11T01:37:47;48.35;;;19.52;;
4565;SDS011;2295;51.050;14.608;2023-02-11T01:40:26;49.22;;;19.10;;
4565;SDS011;2295;51.050;14.608;2023-02-11T01:42:58;51.17;;;20.25;;
4565;SDS011;2295;51.050;14.608;2023-02-11T01:48:37;43.67;;;17.80;;
4565;SDS011;2295;51.050;14.608;2023-02-11T01:51:54;51.35;;;20.15;;
4565;SDS011;2295;51.050;14.608;2023-02-11T01:54:58;49.53;;;20.50;;
4565;SDS011;2295;51.050;14.608;2023-02-11T01:58:05;47.05;;;19.52;;
4565;SDS011;2295;51.050;14.608;2023-02-11T02:00:39;46.97;;;19.13;;
4565;SDS011;2295;51.050;14.608;2023-02-11T02:03:32;47.33;;;18.85;;
4565;SDS011;2295;51.050;14.608;2023-02-11T02:06:25;43.72;;;18.63;;
4565;SDS011;2295;51.050;14.608;2023-02-11T02:09:16;46.75;;;18.40;;
4565;SDS011;2295;51.050;14.608;2023-02-11T02:12:17;45.17;;;19.40;;
4565;SDS011;2295;51.050;14.608;2023-02-11T02:18:01;48.63;;;19.50;;
4565;SDS011;2295;51.050;14.608;2023-02-11T02:21:15;45.10;;;19.15;;
4565;SDS011;2295;51.050;14.608;2023-02-11T02:24:45;45.33;;;19.23;;
4565;SDS011;2295;51.050;14.608;2023-02-11T02:28:10;39.15;;;17.73;;
4565;SDS011;2295;51.050;14.608;2023-02-11T02:31:14;44.08;;;18.17;;
4565;SDS011;2295;51.050;14.608;2023-02-11T02:34:27;42.15;;;17.98;;
4565;SDS011;2295;51.050;14.608;2023-02-11T02:37:26;45.05;;;18.13;;
4565;SDS011;2295;51.050;14.608;2023-02-11T02:40:35;46.40;;;18.25;;
4565;SDS011;2295;51.050;14.608;2023-02-11T02:43:43;38.83;;;17.75;;
4565;SDS011;2295;51.050;14.608;2023-02-11T02:46:24;41.50;;;17.90;;
4565;SDS011;2295;51.050;14.608;2023-02-11T02:49:00;40.75;;;19.10;;
4565;SDS011;2295;51.050;14.608;2023-02-11T02:57:31;45.78;;;19.42;;
4565;SDS011;2295;51.050;14.608;2023-02-11T03:00:19;44.40;;;18.42;;
4565;SDS011;2295;51.050;14.608;2023-02-11T03:03:01;45.38;;;17.85;;
4565;SDS011;2295;51.050;14.608;2023-02-11T03:05:46;41.33;;;17.02;;
4565;SDS011;2295;51.050;14.608;2023-02-11T03:08:22;46.53;;;18.23;;
4565;SDS011;2295;51.050;14.608;2023-02-11T03:11:33;36.22;;;16.70;;
4565;SDS011;2295;51.050;14.608;2023-02-11T03:14:04;37.88;;;17.90;;
4565;SDS011;2295;51.050;14.608;2023-02-11T03:16:37;41.38;;;19.20;;
4565;SDS011;2295;51.050;14.608;2023-02-11T03:19:09;43.88;;;20.25;;
4565;SDS011;2295;51.050;14.608;2023-02-11T03:21:46;44.58;;;19.23;;
4565;SDS011;2295;51.050;14.608;2023-02-11T03:24:42;39.83;;;17.67;;
4565;SDS011;2295;51.050;14.608;2023-02-11T03:27:44;43.25;;;18.23;;
4565;SDS011;2295;51.050;14.608;2023-02-11T03:30:42;39.65;;;18.52;;
4565;SDS011;2295;51.050;14.608;2023-02-11T03:33:48;38.05;;;17.20;;
4565;SDS011;2295;51.050;14.608;2023-02-11T03:36:38;41.25;;;18.23;;
4565;SDS011;2295;51.050;14.608;2023-02-11T03:39:23;41.63;;;18.38;;
4565;SDS011;2295;51.050;14.608;2023-02-11T03:41:56;41.58;;;19.00;;
4565;SDS011;2295;51.050;14.608;2023-02-11T03:44:36;43.75;;;18.17;;
4565;SDS011;2295;51.050;14.608;2023-02-11T03:47:11;46.10;;;19.45;;
4565;SDS011;2295;51.050;14.608;2023-02-11T03:49:43;38.53;;;18.65;;
4565;SDS011;2295;51.050;14.608;2023-02-11T03:52:14;43.05;;;18.95;;
4565;SDS011;2295;51.050;14.608;2023-02-11T03:54:48;44.67;;;18.40;;
4565;SDS011;2295;51.050;14.608;2023-02-11T03:57:20;42.05;;;18.10;;
4565;SDS011;2295;51.050;14.608;2023-02-11T04:00:17;41.30;;;18.83;;
4565;SDS011;2295;51.050;14.608;2023-02-11T04:03:20;46.75;;;19.50;;
4565;SDS011;2295;51.050;14.608;2023-02-11T04:05:58;44.65;;;18.85;;
4565;SDS011;2295;51.050;14.608;2023-02-11T04:08:27;45.67;;;18.00;;
4565;SDS011;2295;51.050;14.608;2023-02-11T04:11:02;42.05;;;19.27;;
4565;SDS011;2295;51.050;14.608;2023-02-11T04:13:31;42.95;;;18.42;;
4565;SDS011;2295;51.050;14.608;2023-02-11T04:16:01;39.08;;;17.65;;
4565;SDS011;2295;51.050;14.608;2023-02-11T04:18:30;41.30;;;18.92;;
4565;SDS011;2295;51.050;14.608;2023-02-11T04:20:59;36.22;;;17.17;;
4565;SDS011;2295;51.050;14.608;2023-02-11T04:23:28;40.78;;;18.20;;
4565;SDS011;2295;51.050;14.608;2023-02-11T04:25:57;42.78;;;19.23;;
4565;SDS011;2295;51.050;14.608;2023-02-11T04:28:29;44.08;;;18.75;;
4565;SDS011;2295;51.050;14.608;2023-02-11T04:31:02;41.13;;;19.13;;
4565;SDS011;2295;51.050;14.608;2023-02-11T04:33:31;43.90;;;17.60;;
4565;SDS011;2295;51.050;14.608;2023-02-11T04:36:00;43.88;;;18.55;;
4565;SDS011;2295;51.050;14.608;2023-02-11T04:38:28;41.67;;;18.20;;
4565;SDS011;2295;51.050;14.608;2023-02-11T04:40:57;41.67;;;19.63;;
4565;SDS011;2295;51.050;14.608;2023-02-11T04:43:26;36.78;;;17.70;;
4565;SDS011;2295;51.050;14.608;2023-02-11T04:45:55;40.85;;;18.92;;
4565;SDS011;2295;51.050;14.608;2023-02-11T04:48:37;39.13;;;19.15;;
4565;SDS011;2295;51.050;14.608;2023-02-11T04:51:09;38.90;;;18.38;;
4565;SDS011;2295;51.050;14.608;2023-02-11T04:53:38;42.28;;;18.55;;
4565;SDS011;2295;51.050;14.608;2023-02-11T04:56:06;43.58;;;19.35;;
4565;SDS011;2295;51.050;14.608;2023-02-11T04:58:42;38.10;;;18.92;;
4565;SDS011;2295;51.050;14.608;2023-02-11T05:01:12;47.42;;;18.40;;
4565;SDS011;2295;51.050;14.608;2023-02-11T05:03:49;46.00;;;20.27;;
4565;SDS011;2295;51.050;14.608;2023-02-11T05:06:27;42.90;;;19.30;;
4565;SDS011;2295;51.050;14.608;2023-02-11T05:09:06;54.30;;;20.00;;
4565;SDS011;2295;51.050;14.608;2023-02-11T05:11:48;55.05;;;19.55;;
4565;SDS011;2295;51.050;14.608;2023-02-11T05:14:29;40.55;;;18.60;;
4565;SDS011;2295;51.050;14.608;2023-02-11T05:17:07;46.50;;;20.50;;
4565;SDS011;2295;51.050;14.608;2023-02-11T05:20:09;52.42;;;21.73;;
4565;SDS011;2295;51.050;14.608;2023-02-11T05:22:44;52.55;;;21.83;;
4565;SDS011;2295;51.050;14.608;2023-02-11T05:25:16;47.42;;;19.88;;
4565;SDS011;2295;51.050;14.608;2023-02-11T05:27:51;49.92;;;21.20;;
4565;SDS011;2295;51.050;14.608;2023-02-11T05:30:27;47.22;;;21.63;;
4565;SDS011;2295;51.050;14.608;2023-02-11T05:33:16;51.15;;;21.50;;
4565;SDS011;2295;51.050;14.608;2023-02-11T05:35:49;48.65;;;21.70;;
4565;SDS011;2295;51.050;14.608;2023-02-11T05:38:24;46.20;;;20.23;;
4565;SDS011;2295;51.050;14.608;2023-02-11T05:41:05;47.92;;;21.00;;
4565;SDS011;2295;51.050;14.608;2023-02-11T05:43:46;54.30;;;22.50;;
4565;SDS011;2295;51.050;14.608;2023-02-11T05:46:29;54.05;;;23.02;;
4565;SDS011;2295;51.050;14.608;2023-02-11T05:49:17;53.03;;;22.52;;
4565;SDS011;2295;51.050;14.608;2023-02-11T05:52:20;50.72;;;21.52;;
4565;SDS011;2295;51.050;14.608;2023-02-11T05:55:45;60.60;;;23.42;;
4565;SDS011;2295;51.050;14.608;2023-02-11T05:58:15;59.97;;;23.23;;
4565;SDS011;2295;51.050;14.608;2023-02-11T06:00:52;53.65;;;22.10;;
4565;SDS011;2295;51.050;14.608;2023-02-11T06:03:21;53.38;;;22.23;;
4565;SDS011;2295;51.050;14.608;2023-02-11T06:05:53;50.22;;;22.80;;
4565;SDS011;2295;51.050;14.608;2023-02-11T06:08:32;52.60;;;24.27;;
4565;SDS011;2295;51.050;14.608;2023-02-11T06:11:13;50.58;;;21.65;;
4565;SDS011;2295;51.050;14.608;2023-02-11T06:13:45;57.50;;;23.77;;
4565;SDS011;2295;51.050;14.608;2023-02-11T06:16:17;53.63;;;22.33;;
4565;SDS011;2295;51.050;14.608;2023-02-11T06:18:49;57.53;;;23.00;;
4565;SDS011;2295;51.050;14.608;2023-02-11T06:21:26;44.78;;;20.58;;
4565;SDS011;2295;51.050;14.608;2023-02-11T06:24:13;55.88;;;22.80;;
4565;SDS011;2295;51.050;14.608;2023-02-11T06:27:04;47.72;;;22.23;;
4565;SDS011;2295;51.050;14.608;2023-02-11T06:29:52;52.05;;;21.95;;
4565;SDS011;2295;51.050;14.608;2023-02-11T06:32:20;54.95;;;23.42;;
4565;SDS011;2295;51.050;14.608;2023-02-11T06:35:09;54.85;;;22.92;;
4565;SDS011;2295;51.050;14.608;2023-02-11T06:37:38;58.25;;;23.25;;
4565;SDS011;2295;51.050;14.608;2023-02-11T06:40:10;59.40;;;24.50;;
4565;SDS011;2295;51.050;14.608;2023-02-11T06:42:42;65.90;;;24.60;;
4565;SDS011;2295;51.050;14.608;2023-02-11T06:45:14;56.20;;;24.58;;
4565;SDS011;2295;51.050;14.608;2023-02-11T06:47:55;63.33;;;25.42;;
4565;SDS011;2295;51.050;14.608;2023-02-11T06:50:27;64.15;;;25.95;;
4565;SDS011;2295;51.050;14.608;2023-02-11T06:53:16;67.25;;;25.35;;
4565;SDS011;2295;51.050;14.608;2023-02-11T06:56:31;61.22;;;25.15;;
4565;SDS011;2295;51.050;14.608;2023-02-11T06:59:27;70.45;;;32.90;;
4565;SDS011;2295;51.050;14.608;2023-02-11T07:01:58;55.92;;;25.20;;
4565;SDS011;2295;51.050;14.608;2023-02-11T07:04:27;68.85;;;28.85;;
4565;SDS011;2295;51.050;14.608;2023-02-11T07:06:56;56.22;;;25.33;;
4565;SDS011;2295;51.050;14.608;2023-02-11T07:09:24;61.97;;;26.25;;
4565;SDS011;2295;51.050;14.608;2023-02-11T07:11:54;57.85;;;24.70;;
4565;SDS011;2295;51.050;14.608;2023-02-11T07:14:23;67.32;;;26.80;;
4565;SDS011;2295;51.050;14.608;2023-02-11T07:17:00;67.57;;;27.30;;
4565;SDS011;2295;51.050;14.608;2023-02-11T07:19:31;65.93;;;27.08;;
4565;SDS011;2295;51.050;14.608;2023-02-11T07:22:09;68.63;;;25.70;;
4565;SDS011;2295;51.050;14.608;2023-02-11T07:24:38;58.67;;;26.67;;
4565;SDS011;2295;51.050;14.608;2023-02-11T07:27:20;52.28;;;21.65;;
4565;SDS011;2295;51.050;14.608;2023-02-11T07:30:08;61.28;;;25.80;;
4565;SDS011;2295;51.050;14.608;2023-02-11T07:32:41;67.00;;;26.98;;
4565;SDS011;2295;51.050;14.608;2023-02-11T07:35:09;62.50;;;26.17;;
4565;SDS011;2295;51.050;14.608;2023-02-11T07:37:38;65.25;;;27.38;;
4565;SDS011;2295;51.050;14.608;2023-02-11T07:40:10;58.90;;;27.40;;
4565;SDS011;2295;51.050;14.608;2023-02-11T07:42:40;64.85;;;26.63;;
4565;SDS011;2295;51.050;14.608;2023-02-11T07:45:11;56.40;;;25.98;;
4565;SDS011;2295;51.050;14.608;2023-02-11T07:47:45;61.45;;;25.70;;
4565;SDS011;2295;51.050;14.608;2023-02-11T07:50:19;59.90;;;25.20;;
4565;SDS011;2295;51.050;14.608;2023-02-11T07:52:51;66.32;;;25.77;;
4565;SDS011;2295;51.050;14.608;2023-02-11T07:55:25;64.18;;;26.02;;
4565;SDS011;2295;51.050;14.608;2023-02-11T07:57:55;56.92;;;25.17;;
4565;SDS011;2295;51.050;14.608;2023-02-11T08:00:28;53.97;;;23.75;;
4565;SDS011;2295;51.050;14.608;2023-02-11T08:03:23;60.78;;;25.73;;
4565;SDS011;2295;51.050;14.608;2023-02-11T08:05:53;63.35;;;25.42;;
4565;SDS011;2295;51.050;14.608;2023-02-11T08:08:30;60.97;;;24.52;;
4565;SDS011;2295;51.050;14.608;2023-02-11T08:11:20;57.38;;;25.20;;
4565;SDS011;2295;51.050;14.608;2023-02-11T08:13:55;57.92;;;25.05;;
4565;SDS011;2295;51.050;14.608;2023-02-11T08:16:27;60.92;;;23.90;;
4565;SDS011;2295;51.050;14.608;2023-02-11T08:19:05;51.25;;;22.35;;
4565;SDS011;2295;51.050;14.608;2023-02-11T08:21:38;52.05;;;23.33;;
4565;SDS011;2295;51.050;14.608;2023-02-11T08:24:08;55.85;;;23.85;;
4565;SDS011;2295;51.050;14.608;2023-02-11T08:26:37;48.20;;;22.38;;
4565;SDS011;2295;51.050;14.608;2023-02-11T08:29:08;48.30;;;22.88;;
4565;SDS011;2295;51.050;14.608;2023-02-11T08:31:40;54.30;;;22.90;;
4565;SDS011;2295;51.050;14.608;2023-02-11T08:34:13;59.75;;;24.17;;
4565;SDS011;2295;51.050;14.608;2023-02-11T08:36:47;54.45;;;23.05;;
4565;SDS011;2295;51.050;14.608;2023-02-11T08:39:17;57.70;;;24.42;;
4565;SDS011;2295;51.050;14.608;2023-02-11T08:41:49;56.88;;;23.90;;
4565;SDS011;2295;51.050;14.608;2023-02-11T08:44:21;50.88;;;22.58;;
4565;SDS011;2295;51.050;14.608;2023-02-11T08:46:51;51.65;;;21.85;;
4565;SDS011;2295;51.050;14.608;2023-02-11T08:49:22;60.38;;;22.77;;
4565;SDS011;2295;51.050;14.608;2023-02-11T08:51:51;51.95;;;22.00;;
4565;SDS011;2295;51.050;14.608;2023-02-11T08:54:24;47.92;;;21.25;;
4565;SDS011;2295;51.050;14.608;2023-02-11T08:56:53;46.75;;;23.17;;
4565;SDS011;2295;51.050;14.608;2023-02-11T08:59:23;51.40;;;22.05;;
4565;SDS011;2295;51.050;14.608;2023-02-11T09:01:55;49.97;;;23.52;;
4565;SDS011;2295;51.050;14.608;2023-02-11T09:04:25;50.38;;;22.30;;
4565;SDS011;2295;51.050;14.608;2023-02-11T09:06:56;47.35;;;20.83;;
4565;SDS011;2295;51.050;14.608;2023-02-11T09:09:25;46.30;;;20.80;;
4565;SDS011;2295;51.050;14.608;2023-02-11T09:11:56;59.75;;;24.77;;
4565;SDS011;2295;51.050;14.608;2023-02-11T09:14:31;56.88;;;25.05;;
4565;SDS011;2295;51.050;14.608;2023-02-11T09:16:59;50.33;;;22.75;;
4565;SDS011;2295;51.050;14.608;2023-02-11T09:19:35;53.20;;;22.23;;
4565;SDS011;2295;51.050;14.608;2023-02-11T09:22:08;44.30;;;20.67;;
4565;SDS011;2295;51.050;14.608;2023-02-11T09:25:08;54.08;;;21.15;;
4565;SDS011;2295;51.050;14.608;2023-02-11T09:27:40;46.83;;;20.95;;
4565;SDS011;2295;51.050;14.608;2023-02-11T09:30:12;48.17;;;21.95;;
4565;SDS011;2295;51.050;14.608;2023-02-11T09:32:40;50.33;;;22.67;;
4565;SDS011;2295;51.050;14.608;2023-02-11T09:35:09;52.25;;;22.30;;
4565;SDS011;2295;51.050;14.608;2023-02-11T09:37:38;52.35;;;22.88;;
4565;SDS011;2295;51.050;14.608;2023-02-11T09:40:13;52.08;;;22.88;;
4565;SDS011;2295;51.050;14.608;2023-02-11T09:42:56;53.25;;;22.75;;
4565;SDS011;2295;51.050;14.608;2023-02-11T09:45:31;47.83;;;22.00;;
4565;SDS011;2295;51.050;14.608;2023-02-11T09:48:02;54.70;;;23.90;;
4565;SDS011;2295;51.050;14.608;2023-02-11T09:50:38;52.90;;;23.23;;
4565;SDS011;2295;51.050;14.608;2023-02-11T09:53:13;57.63;;;23.92;;
4565;SDS011;2295;51.050;14.608;2023-02-11T09:55:50;56.10;;;24.45;;
4565;SDS011;2295;51.050;14.608;2023-02-11T09:58:23;53.53;;;22.67;;
4565;SDS011;2295;51.050;14.608;2023-02-11T10:01:07;50.22;;;23.05;;
4565;SDS011;2295;51.050;14.608;2023-02-11T10:06:41;52.50;;;23.55;;
4565;SDS011;2295;51.050;14.608;2023-02-11T10:09:26;50.22;;;23.17;;
4565;SDS011;2295;51.050;14.608;2023-02-11T10:12:17;48.28;;;21.83;;
4565;SDS011;2295;51.050;14.608;2023-02-11T10:15:05;50.10;;;21.15;;
4565;SDS011;2295;51.050;14.608;2023-02-11T10:17:44;51.13;;;22.95;;
4565;SDS011;2295;51.050;14.608;2023-02-11T10:20:32;50.55;;;22.88;;
4565;SDS011;2295;51.050;14.608;2023-02-11T10:23:07;48.13;;;21.92;;
4565;SDS011;2295;51.050;14.608;2023-02-11T10:25:53;56.50;;;22.95;;
4565;SDS011;2295;51.050;14.608;2023-02-11T10:28:29;52.35;;;24.75;;
4565;SDS011;2295;51.050;14.608;2023-02-11T10:31:07;55.40;;;25.63;;
4565;SDS011;2295;51.050;14.608;2023-02-11T10:33:45;50.28;;;24.83;;
4565;SDS011;2295;51.050;14.608;2023-02-11T10:36:26;57.20;;;24.40;;
4565;SDS011;2295;51.050;14.608;2023-02-11T10:38:59;49.92;;;22.30;;
4565;SDS011;2295;51.050;14.608;2023-02-11T10:41:37;59.70;;;26.83;;
4565;SDS011;2295;51.050;14.608;2023-02-11T10:44:18;47.72;;;22.60;;
4565;SDS011;2295;51.050;14.608;2023-02-11T10:46:52;55.75;;;23.58;;
4565;SDS011;2295;51.050;14.608;2023-02-11T10:49:38;50.03;;;23.15;;
4565;SDS011;2295;51.050;14.608;2023-02-11T10:52:18;51.03;;;22.20;;
4565;SDS011;2295;51.050;14.608;2023-02-11T10:54:55;53.25;;;23.52;;
4565;SDS011;2295;51.050;14.608;2023-02-11T10:57:30;44.85;;;21.25;;
4565;SDS011;2295;51.050;14.608;2023-02-11T11:00:14;46.80;;;20.65;;
4565;SDS011;2295;51.050;14.608;2023-02-11T11:02:56;45.80;;;22.02;;
4565;SDS011;2295;51.050;14.608;2023-02-11T11:05:30;52.92;;;23.52;;
4565;SDS011;2295;51.050;14.608;2023-02-11T11:08:04;52.30;;;23.35;;
4565;SDS011;2295;51.050;14.608;2023-02-11T11:10:35;45.25;;;22.10;;
4565;SDS011;2295;51.050;14.608;2023-02-11T11:13:25;52.03;;;23.40;;
4565;SDS011;2295;51.050;14.608;2023-02-11T11:16:15;45.55;;;20.98;;
4565;SDS011;2295;51.050;14.608;2023-02-11T11:18:50;43.53;;;21.50;;
4565;SDS011;2295;51.050;14.608;2023-02-11T11:21:27;48.92;;;21.63;;
4565;SDS011;2295;51.050;14.608;2023-02-11T11:24:02;42.83;;;20.65;;
4565;SDS011;2295;51.050;14.608;2023-02-11T11:26:38;46.75;;;22.15;;
4565;SDS011;2295;51.050;14.608;2023-02-11T11:29:10;47.55;;;20.73;;
4565;SDS011;2295;51.050;14.608;2023-02-11T11:31:46;51.67;;;22.52;;
4565;SDS011;2295;51.050;14.608;2023-02-11T11:34:22;48.35;;;20.92;;
4565;SDS011;2295;51.050;14.608;2023-02-11T11:36:56;43.30;;;19.33;;
4565;SDS011;2295;51.050;14.608;2023-02-11T11:39:32;41.30;;;20.45;;
4565;SDS011;2295;51.050;14.608;2023-02-11T11:42:03;42.53;;;20.35;;
4565;SDS011;2295;51.050;14.608;2023-02-11T11:44:54;40.47;;;20.50;;
4565;SDS011;2295;51.050;14.608;2023-02-11T11:47:26;45.65;;;21.02;;
4565;SDS011;2295;51.050;14.608;2023-02-11T11:52:58;43.00;;;20.20;;
4565;SDS011;2295;51.050;14.608;2023-02-11T11:55:37;48.85;;;21.10;;
4565;SDS011;2295;51.050;14.608;2023-02-11T11:58:12;47.28;;;21.30;;
4565;SDS011;2295;51.050;14.608;2023-02-11T12:00:47;43.97;;;20.80;;
4565;SDS011;2295;51.050;14.608;2023-02-11T12:03:28;48.70;;;20.23;;
4565;SDS011;2295;51.050;14.608;2023-02-11T12:06:30;47.83;;;21.92;;
4565;SDS011;2295;51.050;14.608;2023-02-11T12:09:18;52.35;;;21.98;;
4565;SDS011;2295;51.050;14.608;2023-02-11T12:12:00;51.17;;;23.40;;
4565;SDS011;2295;51.050;14.608;2023-02-11T12:14:48;52.78;;;21.67;;
4565;SDS011;2295;51.050;14.608;2023-02-11T12:17:36;48.60;;;21.95;;
4565;SDS011;2295;51.050;14.608;2023-02-11T12:20:35;48.10;;;21.42;;
4565;SDS011;2295;51.050;14.608;2023-02-11T12:23:24;49.53;;;21.35;;
4565;SDS011;2295;51.050;14.608;2023-02-11T12:26:15;47.65;;;22.30;;
4565;SDS011;2295;51.050;14.608;2023-02-11T12:28:52;51.88;;;23.48;;
4565;SDS011;2295;51.050;14.608;2023-02-11T12:31:46;46.28;;;21.30;;
4565;SDS011;2295;51.050;14.608;2023-02-11T12:34:52;44.55;;;20.98;;
4565;SDS011;2295;51.050;14.608;2023-02-11T12:38:16;57.95;;;22.58;;
4565;SDS011;2295;51.050;14.608;2023-02-11T12:47:31;44.80;;;20.23;;
4565;SDS011;2295;51.050;14.608;2023-02-11T12:50:12;50.38;;;21.75;;
4565;SDS011;2295;51.050;14.608;2023-02-11T12:56:02;47.42;;;20.45;;
4565;SDS011;2295;51.050;14.608;2023-02-11T12:58:51;48.63;;;21.88;;
4565;SDS011;2295;51.050;14.608;2023-02-11T13:01:29;48.65;;;20.17;;
4565;SDS011;2295;51.050;14.608;2023-02-11T13:04:10;41.33;;;20.48;;
4565;SDS011;2295;51.050;14.608;2023-02-11T13:06:56;54.78;;;21.25;;
4565;SDS011;2295;51.050;14.608;2023-02-11T13:09:34;45.28;;;20.33;;
4565;SDS011;2295;51.050;14.608;2023-02-11T13:12:23;50.28;;;22.13;;
4565;SDS011;2295;51.050;14.608;2023-02-11T13:15:29;44.22;;;20.35;;
4565;SDS011;2295;51.050;14.608;2023-02-11T13:18:03;42.08;;;20.27;;
4565;SDS011;2295;51.050;14.608;2023-02-11T13:21:13;53.47;;;22.60;;
4565;SDS011;2295;51.050;14.608;2023-02-11T13:24:11;49.63;;;21.52;;
4565;SDS011;2295;51.050;14.608;2023-02-11T13:27:00;50.22;;;21.63;;
4565;SDS011;2295;51.050;14.608;2023-02-11T13:29:39;43.70;;;20.05;;
4565;SDS011;2295;51.050;14.608;2023-02-11T13:36:19;51.30;;;21.00;;
4565;SDS011;2295;51.050;14.608;2023-02-11T13:38:55;45.88;;;20.98;;
4565;SDS011;2295;51.050;14.608;2023-02-11T13:41:29;61.22;;;27.30;;
4565;SDS011;2295;51.050;14.608;2023-02-11T13:44:17;58.13;;;20.33;;
4565;SDS011;2295;51.050;14.608;2023-02-11T13:46:59;54.65;;;22.08;;
4565;SDS011;2295;51.050;14.608;2023-02-11T13:49:36;51.38;;;21.65;;
4565;SDS011;2295;51.050;14.608;2023-02-11T13:52:21;51.50;;;23.67;;
4565;SDS011;2295;51.050;14.608;2023-02-11T13:54:53;45.28;;;21.63;;
4565;SDS011;2295;51.050;14.608;2023-02-11T13:57:26;44.92;;;20.85;;
4565;SDS011;2295;51.050;14.608;2023-02-11T13:59:59;54.40;;;22.48;;
4565;SDS011;2295;51.050;14.608;2023-02-11T14:02:50;53.65;;;21.83;;
4565;SDS011;2295;51.050;14.608;2023-02-11T14:06:33;49.78;;;21.75;;
4565;SDS011;2295;51.050;14.608;2023-02-11T14:09:39;49.97;;;21.98;;
4565;SDS011;2295;51.050;14.608;2023-02-11T14:12:30;48.45;;;22.58;;
4565;SDS011;2295;51.050;14.608;2023-02-11T14:15:16;45.88;;;21.85;;
4565;SDS011;2295;51.050;14.608;2023-02-11T14:17:58;47.03;;;20.52;;
4565;SDS011;2295;51.050;14.608;2023-02-11T14:20:38;51.28;;;21.42;;
4565;SDS011;2295;51.050;14.608;2023-02-11T14:28:59;50.05;;;20.85;;
4565;SDS011;2295;51.050;14.608;2023-02-11T14:31:41;47.78;;;20.10;;
4565;SDS011;2295;51.050;14.608;2023-02-11T14:34:32;45.03;;;20.15;;
4565;SDS011;2295;51.050;14.608;2023-02-11T14:37:21;40.78;;;18.55;;
4565;SDS011;2295;51.050;14.608;2023-02-11T14:40:28;49.05;;;21.90;;
4565;SDS011;2295;51.050;14.608;2023-02-11T14:43:10;52.95;;;21.50;;
4565;SDS011;2295;51.050;14.608;2023-02-11T14:45:47;46.72;;;19.92;;
4565;SDS011;2295;51.050;14.608;2023-02-11T14:48:26;48.03;;;21.75;;
4565;SDS011;2295;51.050;14.608;2023-02-11T14:50:59;56.40;;;23.55;;
4565;SDS011;2295;51.050;14.608;2023-02-11T14:53:40;63.00;;;22.80;;
4565;SDS011;2295;51.050;14.608;2023-02-11T14:56:23;46.35;;;20.20;;
4565;SDS011;2295;51.050;14.608;2023-02-11T14:59:01;55.78;;;22.52;;
4565;SDS011;2295;51.050;14.608;2023-02-11T15:01:55;53.08;;;21.60;;
4565;SDS011;2295;51.050;14.608;2023-02-11T15:04:33;47.50;;;20.88;;
4565;SDS011;2295;51.050;14.608;2023-02-11T15:07:20;61.90;;;23.42;;
4565;SDS011;2295;51.050;14.608;2023-02-11T15:09:51;52.47;;;22.40;;
4565;SDS011;2295;51.050;14.608;2023-02-11T15:12:25;51.63;;;22.15;;
4565;SDS011;2295;51.050;14.608;2023-02-11T15:14:58;47.10;;;20.15;;
4565;SDS011;2295;51.050;14.608;2023-02-11T15:17:37;55.75;;;22.45;;
4565;SDS011;2295;51.050;14.608;2023-02-11T15:20:21;51.03;;;21.80;;
4565;SDS011;2295;51.050;14.608;2023-02-11T15:23:00;53.28;;;23.30;;
4565;SDS011;2295;51.050;14.608;2023-02-11T15:25:33;47.92;;;22.17;;
4565;SDS011;2295;51.050;14.608;2023-02-11T15:28:18;44.65;;;19.90;;
4565;SDS011;2295;51.050;14.608;2023-02-11T15:31:19;47.65;;;20.20;;
4565;SDS011;2295;51.050;14.608;2023-02-11T15:34:32;47.15;;;18.80;;
4565;SDS011;2295;51.050;14.608;2023-02-11T15:37:04;42.17;;;19.70;;
4565;SDS011;2295;51.050;14.608;2023-02-11T15:39:37;48.90;;;21.52;;
4565;SDS011;2295;51.050;14.608;2023-02-11T15:48:18;46.67;;;21.50;;
4565;SDS011;2295;51.050;14.608;2023-02-11T15:50:54;55.97;;;21.63;;
4565;SDS011;2295;51.050;14.608;2023-02-11T15:53:35;48.42;;;20.55;;
4565;SDS011;2295;51.050;14.608;2023-02-11T15:56:10;47.05;;;22.25;;
4565;SDS011;2295;51.050;14.608;2023-02-11T15:58:55;56.72;;;23.95;;
4565;SDS011;2295;51.050;14.608;2023-02-11T16:01:35;46.35;;;23.25;;
4565;SDS011;2295;51.050;14.608;2023-02-11T16:04:15;43.08;;;20.15;;
4565;SDS011;2295;51.050;14.608;2023-02-11T16:06:50;52.63;;;22.90;;
4565;SDS011;2295;51.050;14.608;2023-02-11T16:09:22;51.40;;;21.98;;
4565;SDS011;2295;51.050;14.608;2023-02-11T16:12:01;46.05;;;22.05;;
4565;SDS011;2295;51.050;14.608;2023-02-11T16:14:36;51.60;;;22.73;;
4565;SDS011;2295;51.050;14.608;2023-02-11T16:17:25;51.13;;;22.58;;
4565;SDS011;2295;51.050;14.608;2023-02-11T16:20:16;47.92;;;19.05;;
4565;SDS011;2295;51.050;14.608;2023-02-11T16:22:48;44.17;;;20.52;;
4565;SDS011;2295;51.050;14.608;2023-02-11T16:25:25;48.33;;;21.27;;
4565;SDS011;2295;51.050;14.608;2023-02-11T16:28:11;43.38;;;19.95;;
4565;SDS011;2295;51.050;14.608;2023-02-11T16:30:45;47.80;;;20.13;;
4565;SDS011;2295;51.050;14.608;2023-02-11T16:33:22;55.05;;;22.98;;
4565;SDS011;2295;51.050;14.608;2023-02-11T16:35:53;50.45;;;23.83;;